Hauptseite
METAR-TAF:

METAR-TAF

Flughäfen :

Flughafen Göteborg/Säve

Göteborg, Schweden

Breite: 57-47N, Länge: 011-53E, Höhe: 20 m

Beobachtung

Neuester Wetterbericht von vor 33 Minuten, um 19:20 UTC
Windstille
Temperatur 18°C
Luftfeuchtigkeit 88%
Luftdruck 1014 hPa
Sichtweite 10 km oder mehr

METAR: ESGP 231920Z AUTO 00000KT 9999 SCT062/// BKN200/// 18/16 Q1014

Zeit: 21:53 (19:53 UTC)

Prognose

Neuester Wetterbericht von vor 5 Stunden und 23 Minuten, um 14:30 UTC
Gültige Prognose vom 23 um 15 UTC bis 23 um 17 UTC
Wind 8 kt aus West
Sichtweite 10 km oder mehr
keine Wolken unter 1500 m und keine Kumulonimbus oder Gewitterwolken
Wahrscheinlichkeit 40% :
Zeitweise
vom 23 um 15 UTC bis 23 um 17 UTC
Sichtweite: 4000 m
Durchbrochene Bewölkung in der Höhe von 4500 ft, Kumulonimbus.
Gewitter, Regen,

TAF: ESGP 231430Z 2315/2317 27008KT CAVOK PROB40 TEMPO 2315/2317 4000 TSRA BKN045CB

Wetterbeobachtungen und Prognosen von mehr als 4000 Flughäfen (METAR und TAF Bericht).

Die verfügbaren Stationen werden durch gelbe und rote Markierungen auf der Karte dargestellt.

Führen Sie die Maus auf sie, um den Namen der Station zu sehen.

Darauf klicken, um die Beobachtung von Wetterbeobachtungen und Prognosen zu sehen.

Um die Karte zu ändern : klicken Sie auf den grünen Tasten mit einem schwarzen Kreuz Zum Vergrößern, auf den grünen Button mit einem Gedankenstrich zu verkleinern, oder auf die grünen Pfeile für benachbarte Karten.


METAR-TAF: